Main page
METAR-TAF:

METAR-TAF

Airports :

West Plains Regional Airport

West Plains, Missouri, United States

latitude: 36-52-45N, longitude: 091-54-18W, elevation: 1227 ft

Current weather observation

The report was made 1 hour and 17 minutes ago, at 00:53 UTC
Wind 6 mph from the Southeast
Temperature 90°F
Humidity 56%
Pressure 29.94 in. Hg
Visibility: 10 miles
Clear sky

METAR: KUNO 250053Z AUTO 13005KT 10SM CLR 32/22 A2994 RMK AO2 SLP122 T03170222

Time: 21:10 (02:10 UTC)


TAF: missing

Weather observations and forecasts of more than 4000 airports (METAR and TAF reports).

The available stations are represented by yellow and red dots on the map.

Hover mouse over dot to see the name of the station.

Then click to see weather observations and forecasts.

To change the map : click on the green buttons with a black cross to zoom in, on the green button with a dash to zoom out, or on the green arrows for adjacent maps.


METAR-TAF: